sensor_id;sensor_type;location;lat;lon;timestamp;temperature;humidity
65421;DHT22;52028;50.658;14.004;2022-11-20T00:00:47;-5.84;89.50
65421;DHT22;52028;50.658;14.004;2022-11-20T00:03:12;-5.91;90.24
65421;DHT22;52028;50.658;14.004;2022-11-20T00:05:38;-5.98;90.55
65421;DHT22;52028;50.658;14.004;2022-11-20T00:08:03;-6.05;90.69
65421;DHT22;52028;50.658;14.004;2022-11-20T00:10:29;-6.06;90.79
65421;DHT22;52028;50.658;14.004;2022-11-20T00:12:54;-5.98;90.97
65421;DHT22;52028;50.658;14.004;2022-11-20T00:15:20;-5.93;91.07
65421;DHT22;52028;50.658;14.004;2022-11-20T00:17:46;-5.94;91.03
65421;DHT22;52028;50.658;14.004;2022-11-20T00:20:11;-5.94;91.15
65421;DHT22;52028;50.658;14.004;2022-11-20T00:22:37;-5.93;91.15
65421;DHT22;52028;50.658;14.004;2022-11-20T00:25:02;-5.90;91.10
65421;DHT22;52028;50.658;14.004;2022-11-20T00:27:28;-5.88;90.91
65421;DHT22;52028;50.658;14.004;2022-11-20T00:29:53;-5.86;90.36
65421;DHT22;52028;50.658;14.004;2022-11-20T00:32:18;-5.88;90.14
65421;DHT22;52028;50.658;14.004;2022-11-20T00:34:44;-5.80;89.87
65421;DHT22;52028;50.658;14.004;2022-11-20T00:37:09;-5.78;89.59
65421;DHT22;52028;50.658;14.004;2022-11-20T00:39:34;-5.80;89.59
65421;DHT22;52028;50.658;14.004;2022-11-20T00:42:00;-5.83;89.72
65421;DHT22;52028;50.658;14.004;2022-11-20T00:44:25;-5.84;89.67
65421;DHT22;52028;50.658;14.004;2022-11-20T00:46:50;-5.77;89.99
65421;DHT22;52028;50.658;14.004;2022-11-20T00:49:16;-5.55;90.92
65421;DHT22;52028;50.658;14.004;2022-11-20T00:51:41;-5.50;91.42
65421;DHT22;52028;50.658;14.004;2022-11-20T00:54:06;-5.42;91.64
65421;DHT22;52028;50.658;14.004;2022-11-20T00:56:32;-5.26;91.77
65421;DHT22;52028;50.658;14.004;2022-11-20T00:58:59;-5.22;91.41
65421;DHT22;52028;50.658;14.004;2022-11-20T01:01:25;-5.24;91.13
65421;DHT22;52028;50.658;14.004;2022-11-20T01:03:52;-5.21;91.58
65421;DHT22;52028;50.658;14.004;2022-11-20T01:08:48;-5.21;92.35
65421;DHT22;52028;50.658;14.004;2022-11-20T01:11:17;-5.09;92.43
65421;DHT22;52028;50.658;14.004;2022-11-20T01:13:44;-4.97;92.09
65421;DHT22;52028;50.658;14.004;2022-11-20T01:18:40;-4.69;90.95
65421;DHT22;52028;50.658;14.004;2022-11-20T01:21:14;-4.68;90.92
65421;DHT22;52028;50.658;14.004;2022-11-20T01:23:41;-4.62;90.47
65421;DHT22;52028;50.658;14.004;2022-11-20T01:26:11;-4.60;90.35
65421;DHT22;52028;50.658;14.004;2022-11-20T01:28:37;-4.53;90.65
65421;DHT22;52028;50.658;14.004;2022-11-20T01:31:21;-4.45;90.99
65421;DHT22;52028;50.658;14.004;2022-11-20T01:33:48;-4.49;91.29
65421;DHT22;52028;50.658;14.004;2022-11-20T01:36:15;-4.42;91.47
65421;DHT22;52028;50.658;14.004;2022-11-20T01:38:42;-4.41;91.40
65421;DHT22;52028;50.658;14.004;2022-11-20T01:41:08;-4.41;91.05
65421;DHT22;52028;50.658;14.004;2022-11-20T01:43:34;-4.36;90.88
65421;DHT22;52028;50.658;14.004;2022-11-20T01:46:15;-4.40;91.25
65421;DHT22;52028;50.658;14.004;2022-11-20T01:51:44;-4.25;91.13
65421;DHT22;52028;50.658;14.004;2022-11-20T01:54:17;-4.14;90.89
65421;DHT22;52028;50.658;14.004;2022-11-20T01:56:45;-4.06;90.61
65421;DHT22;52028;50.658;14.004;2022-11-20T01:59:15;-3.93;89.72
65421;DHT22;52028;50.658;14.004;2022-11-20T02:01:42;-3.94;88.58
65421;DHT22;52028;50.658;14.004;2022-11-20T02:04:08;-3.91;88.19
65421;DHT22;52028;50.658;14.004;2022-11-20T02:06:50;-3.90;88.07
65421;DHT22;52028;50.658;14.004;2022-11-20T02:09:17;-3.89;88.16
65421;DHT22;52028;50.658;14.004;2022-11-20T02:11:42;-3.78;88.22
65421;DHT22;52028;50.658;14.004;2022-11-20T02:14:08;-3.96;87.21
65421;DHT22;52028;50.658;14.004;2022-11-20T02:16:37;-4.34;85.86
65421;DHT22;52028;50.658;14.004;2022-11-20T02:19:06;-4.55;86.02
65421;DHT22;52028;50.658;14.004;2022-11-20T02:22:02;-4.56;86.29
65421;DHT22;52028;50.658;14.004;2022-11-20T02:24:29;-4.68;87.36
65421;DHT22;52028;50.658;14.004;2022-11-20T02:27:06;-4.70;87.37
65421;DHT22;52028;50.658;14.004;2022-11-20T02:29:36;-4.70;87.76
65421;DHT22;52028;50.658;14.004;2022-11-20T02:32:03;-4.60;87.83
65421;DHT22;52028;50.658;14.004;2022-11-20T02:34:28;-4.63;87.67
65421;DHT22;52028;50.658;14.004;2022-11-20T02:36:55;-4.45;87.46
65421;DHT22;52028;50.658;14.004;2022-11-20T02:39:22;-4.26;86.70
65421;DHT22;52028;50.658;14.004;2022-11-20T02:41:49;-4.36;86.30
65421;DHT22;52028;50.658;14.004;2022-11-20T02:44:16;-4.31;86.69
65421;DHT22;52028;50.658;14.004;2022-11-20T02:46:42;-4.32;86.97
65421;DHT22;52028;50.658;14.004;2022-11-20T02:49:07;-4.31;87.37
65421;DHT22;52028;50.658;14.004;2022-11-20T02:51:33;-4.34;87.44
65421;DHT22;52028;50.658;14.004;2022-11-20T02:53:58;-4.22;87.47
65421;DHT22;52028;50.658;14.004;2022-11-20T02:56:23;-4.13;87.47
65421;DHT22;52028;50.658;14.004;2022-11-20T02:58:49;-4.01;87.28
65421;DHT22;52028;50.658;14.004;2022-11-20T03:01:14;-4.07;87.40
65421;DHT22;52028;50.658;14.004;2022-11-20T03:03:40;-3.86;87.12
65421;DHT22;52028;50.658;14.004;2022-11-20T03:06:05;-3.75;86.55
65421;DHT22;52028;50.658;14.004;2022-11-20T03:08:31;-3.55;86.23
65421;DHT22;52028;50.658;14.004;2022-11-20T03:10:56;-3.91;86.79
65421;DHT22;52028;50.658;14.004;2022-11-20T03:13:21;-3.98;87.36
65421;DHT22;52028;50.658;14.004;2022-11-20T03:15:47;-3.91;87.72
65421;DHT22;52028;50.658;14.004;2022-11-20T03:18:12;-3.79;87.46
65421;DHT22;52028;50.658;14.004;2022-11-20T03:20:39;-3.55;87.02
65421;DHT22;52028;50.658;14.004;2022-11-20T03:23:04;-3.52;86.68
65421;DHT22;52028;50.658;14.004;2022-11-20T03:25:30;-3.37;86.39
65421;DHT22;52028;50.658;14.004;2022-11-20T03:27:55;-3.47;86.34
65421;DHT22;52028;50.658;14.004;2022-11-20T03:30:20;-3.54;86.70
65421;DHT22;52028;50.658;14.004;2022-11-20T03:32:46;-3.38;86.70
65421;DHT22;52028;50.658;14.004;2022-11-20T03:35:11;-3.37;86.67
65421;DHT22;52028;50.658;14.004;2022-11-20T03:37:37;-3.25;86.55
65421;DHT22;52028;50.658;14.004;2022-11-20T03:40:03;-3.28;86.21
65421;DHT22;52028;50.658;14.004;2022-11-20T03:42:28;-3.20;85.99
65421;DHT22;52028;50.658;14.004;2022-11-20T03:45:16;-3.08;85.71
65421;DHT22;52028;50.658;14.004;2022-11-20T03:47:42;-2.93;85.26
65421;DHT22;52028;50.658;14.004;2022-11-20T03:50:09;-3.03;84.91
65421;DHT22;52028;50.658;14.004;2022-11-20T03:52:34;-3.35;85.89
65421;DHT22;52028;50.658;14.004;2022-11-20T03:55:00;-3.21;85.96
65421;DHT22;52028;50.658;14.004;2022-11-20T03:57:25;-2.97;85.46
65421;DHT22;52028;50.658;14.004;2022-11-20T03:59:50;-2.93;84.85
65421;DHT22;52028;50.658;14.004;2022-11-20T04:02:16;-3.08;84.96
65421;DHT22;52028;50.658;14.004;2022-11-20T04:04:41;-2.86;84.82
65421;DHT22;52028;50.658;14.004;2022-11-20T04:07:06;-2.88;84.51
65421;DHT22;52028;50.658;14.004;2022-11-20T04:09:31;-2.97;84.71
65421;DHT22;52028;50.658;14.004;2022-11-20T04:11:57;-3.07;84.85
65421;DHT22;52028;50.658;14.004;2022-11-20T04:14:22;-3.20;85.68
65421;DHT22;52028;50.658;14.004;2022-11-20T04:16:47;-3.21;85.95
65421;DHT22;52028;50.658;14.004;2022-11-20T04:19:14;-3.21;85.93
65421;DHT22;52028;50.658;14.004;2022-11-20T04:21:41;-3.14;85.72
65421;DHT22;52028;50.658;14.004;2022-11-20T04:24:07;-3.11;85.46
65421;DHT22;52028;50.658;14.004;2022-11-20T04:26:33;-3.10;85.27
65421;DHT22;52028;50.658;14.004;2022-11-20T04:28:59;-3.01;85.23
65421;DHT22;52028;50.658;14.004;2022-11-20T04:31:28;-2.86;84.59
65421;DHT22;52028;50.658;14.004;2022-11-20T04:33:54;-2.65;83.72
65421;DHT22;52028;50.658;14.004;2022-11-20T04:36:22;-2.55;82.91
65421;DHT22;52028;50.658;14.004;2022-11-20T04:39:04;-2.54;82.51
65421;DHT22;52028;50.658;14.004;2022-11-20T04:41:32;-2.43;82.15
65421;DHT22;52028;50.658;14.004;2022-11-20T04:44:00;-2.44;82.03
65421;DHT22;52028;50.658;14.004;2022-11-20T04:46:32;-2.24;81.80
65421;DHT22;52028;50.658;14.004;2022-11-20T04:48:58;-2.36;81.84
65421;DHT22;52028;50.658;14.004;2022-11-20T04:51:24;-2.54;82.14
65421;DHT22;52028;50.658;14.004;2022-11-20T04:53:50;-2.44;81.90
65421;DHT22;52028;50.658;14.004;2022-11-20T04:56:15;-2.36;81.65
65421;DHT22;52028;50.658;14.004;2022-11-20T04:58:41;-2.38;81.77
65421;DHT22;52028;50.658;14.004;2022-11-20T05:01:10;-2.26;81.53
65421;DHT22;52028;50.658;14.004;2022-11-20T05:03:36;-2.30;80.96
65421;DHT22;52028;50.658;14.004;2022-11-20T05:06:03;-2.19;81.06
65421;DHT22;52028;50.658;14.004;2022-11-20T05:08:30;-2.13;80.40
65421;DHT22;52028;50.658;14.004;2022-11-20T05:11:13;-1.99;80.16
65421;DHT22;52028;50.658;14.004;2022-11-20T05:13:38;-2.00;79.97
65421;DHT22;52028;50.658;14.004;2022-11-20T05:16:06;-2.13;80.30
65421;DHT22;52028;50.658;14.004;2022-11-20T05:18:33;-2.27;80.37
65421;DHT22;52028;50.658;14.004;2022-11-20T05:20:59;-2.27;80.93
65421;DHT22;52028;50.658;14.004;2022-11-20T05:23:25;-2.24;80.40
65421;DHT22;52028;50.658;14.004;2022-11-20T05:25:54;-2.16;80.52
65421;DHT22;52028;50.658;14.004;2022-11-20T05:28:20;-2.10;80.08
65421;DHT22;52028;50.658;14.004;2022-11-20T05:30:46;-2.36;81.17
65421;DHT22;52028;50.658;14.004;2022-11-20T05:33:11;-2.19;81.20
65421;DHT22;52028;50.658;14.004;2022-11-20T05:35:36;-2.09;80.86
65421;DHT22;52028;50.658;14.004;2022-11-20T05:38:02;-1.99;80.60
65421;DHT22;52028;50.658;14.004;2022-11-20T05:40:27;-1.89;79.87
65421;DHT22;52028;50.658;14.004;2022-11-20T05:42:53;-1.89;79.60
65421;DHT22;52028;50.658;14.004;2022-11-20T05:45:18;-1.85;79.15
65421;DHT22;52028;50.658;14.004;2022-11-20T05:47:43;-1.88;79.10
65421;DHT22;52028;50.658;14.004;2022-11-20T05:50:09;-1.77;79.10
65421;DHT22;52028;50.658;14.004;2022-11-20T05:52:34;-1.68;78.83
65421;DHT22;52028;50.658;14.004;2022-11-20T05:54:59;-1.68;78.65
65421;DHT22;52028;50.658;14.004;2022-11-20T05:57:25;-1.62;78.50
65421;DHT22;52028;50.658;14.004;2022-11-20T05:59:50;-1.62;78.68
65421;DHT22;52028;50.658;14.004;2022-11-20T06:02:16;-2.14;80.54
65421;DHT22;52028;50.658;14.004;2022-11-20T06:04:41;-2.33;81.75
65421;DHT22;52028;50.658;14.004;2022-11-20T06:07:06;-2.30;81.99
65421;DHT22;52028;50.658;14.004;2022-11-20T06:09:33;-2.06;81.85
65421;DHT22;52028;50.658;14.004;2022-11-20T06:11:59;-2.09;81.64
65421;DHT22;52028;50.658;14.004;2022-11-20T06:14:24;-1.92;81.23
65421;DHT22;52028;50.658;14.004;2022-11-20T06:16:49;-1.75;80.80
65421;DHT22;52028;50.658;14.004;2022-11-20T06:19:15;-1.65;80.04
65421;DHT22;52028;50.658;14.004;2022-11-20T06:21:40;-1.60;79.71
65421;DHT22;52028;50.658;14.004;2022-11-20T06:24:06;-1.48;79.44
65421;DHT22;52028;50.658;14.004;2022-11-20T06:26:32;-1.43;79.33
65421;DHT22;52028;50.658;14.004;2022-11-20T06:28:57;-1.39;78.94
65421;DHT22;52028;50.658;14.004;2022-11-20T06:31:24;-1.42;79.15
65421;DHT22;52028;50.658;14.004;2022-11-20T06:33:50;-1.89;80.27
65421;DHT22;52028;50.658;14.004;2022-11-20T06:36:18;-2.22;81.65
65421;DHT22;52028;50.658;14.004;2022-11-20T06:38:44;-2.43;82.74
65421;DHT22;52028;50.658;14.004;2022-11-20T06:41:12;-2.52;83.11
65421;DHT22;52028;50.658;14.004;2022-11-20T06:43:38;-2.60;83.63
65421;DHT22;52028;50.658;14.004;2022-11-20T06:46:03;-2.54;83.90
65421;DHT22;52028;50.658;14.004;2022-11-20T06:48:29;-2.47;84.05
65421;DHT22;52028;50.658;14.004;2022-11-20T06:50:55;-2.58;84.48
65421;DHT22;52028;50.658;14.004;2022-11-20T06:53:21;-2.38;84.19
65421;DHT22;52028;50.658;14.004;2022-11-20T06:55:47;-2.30;84.02
65421;DHT22;52028;50.658;14.004;2022-11-20T06:58:14;-2.00;83.05
65421;DHT22;52028;50.658;14.004;2022-11-20T07:00:39;-1.86;82.01
65421;DHT22;52028;50.658;14.004;2022-11-20T07:03:06;-1.75;81.61
65421;DHT22;52028;50.658;14.004;2022-11-20T07:05:32;-1.60;81.19
65421;DHT22;52028;50.658;14.004;2022-11-20T07:07:58;-1.50;80.50
65421;DHT22;52028;50.658;14.004;2022-11-20T07:10:24;-1.53;80.29
65421;DHT22;52028;50.658;14.004;2022-11-20T07:12:50;-1.77;81.13
65421;DHT22;52028;50.658;14.004;2022-11-20T07:15:17;-1.79;81.69
65421;DHT22;52028;50.658;14.004;2022-11-20T07:17:42;-1.57;81.51
65421;DHT22;52028;50.658;14.004;2022-11-20T07:20:08;-1.39;80.86
65421;DHT22;52028;50.658;14.004;2022-11-20T07:22:33;-1.51;80.70
65421;DHT22;52028;50.658;14.004;2022-11-20T07:24:59;-1.40;80.58
65421;DHT22;52028;50.658;14.004;2022-11-20T07:27:24;-1.40;80.32
65421;DHT22;52028;50.658;14.004;2022-11-20T07:29:49;-1.25;80.35
65421;DHT22;52028;50.658;14.004;2022-11-20T07:32:15;-1.19;80.28
65421;DHT22;52028;50.658;14.004;2022-11-20T07:34:40;-1.33;80.86
65421;DHT22;52028;50.658;14.004;2022-11-20T07:37:05;-1.25;80.67
65421;DHT22;52028;50.658;14.004;2022-11-20T07:39:30;-1.13;80.41
65421;DHT22;52028;50.658;14.004;2022-11-20T07:41:56;-1.21;80.52
65421;DHT22;52028;50.658;14.004;2022-11-20T07:44:21;-1.13;80.41
65421;DHT22;52028;50.658;14.004;2022-11-20T07:46:46;-1.17;80.47
65421;DHT22;52028;50.658;14.004;2022-11-20T07:49:12;-1.26;80.80
65421;DHT22;52028;50.658;14.004;2022-11-20T07:51:37;-1.19;80.98
65421;DHT22;52028;50.658;14.004;2022-11-20T07:54:02;-1.15;80.53
65421;DHT22;52028;50.658;14.004;2022-11-20T07:56:28;-1.19;80.62
65421;DHT22;52028;50.658;14.004;2022-11-20T07:58:53;-1.10;80.66
65421;DHT22;52028;50.658;14.004;2022-11-20T08:01:18;-0.98;79.72
65421;DHT22;52028;50.658;14.004;2022-11-20T08:03:44;-0.95;79.39
65421;DHT22;52028;50.658;14.004;2022-11-20T08:06:09;-0.88;79.40
65421;DHT22;52028;50.658;14.004;2022-11-20T08:08:34;-1.02;79.98
65421;DHT22;52028;50.658;14.004;2022-11-20T08:11:00;-0.98;79.80
65421;DHT22;52028;50.658;14.004;2022-11-20T08:13:45;-0.88;79.79
65421;DHT22;52028;50.658;14.004;2022-11-20T08:16:29;-0.77;79.93
65421;DHT22;52028;50.658;14.004;2022-11-20T08:18:55;-0.93;80.55
65421;DHT22;52028;50.658;14.004;2022-11-20T08:21:20;-0.89;80.41
65421;DHT22;52028;50.658;14.004;2022-11-20T08:23:45;-0.88;80.49
65421;DHT22;52028;50.658;14.004;2022-11-20T08:26:11;-0.73;80.14
65421;DHT22;52028;50.658;14.004;2022-11-20T08:28:36;-0.85;80.41
65421;DHT22;52028;50.658;14.004;2022-11-20T08:31:02;-0.68;79.89
65421;DHT22;52028;50.658;14.004;2022-11-20T08:33:28;-0.61;79.25
65421;DHT22;52028;50.658;14.004;2022-11-20T08:36:04;-0.53;79.26
65421;DHT22;52028;50.658;14.004;2022-11-20T08:38:31;-0.40;78.72
65421;DHT22;52028;50.658;14.004;2022-11-20T08:41:02;-0.32;78.38
65421;DHT22;52028;50.658;14.004;2022-11-20T08:43:46;-0.28;77.70
65421;DHT22;52028;50.658;14.004;2022-11-20T08:46:11;-0.29;77.79
65421;DHT22;52028;50.658;14.004;2022-11-20T08:48:38;-0.47;77.89
65421;DHT22;52028;50.658;14.004;2022-11-20T08:51:03;-0.49;78.53
65421;DHT22;52028;50.658;14.004;2022-11-20T08:53:28;-0.32;78.33
65421;DHT22;52028;50.658;14.004;2022-11-20T08:55:54;-0.20;77.79
65421;DHT22;52028;50.658;14.004;2022-11-20T08:58:19;-0.15;77.38
65421;DHT22;52028;50.658;14.004;2022-11-20T09:00:45;-0.08;76.99
65421;DHT22;52028;50.658;14.004;2022-11-20T09:03:10;-0.01;76.87
65421;DHT22;52028;50.658;14.004;2022-11-20T09:05:35;0.09;76.49
65421;DHT22;52028;50.658;14.004;2022-11-20T09:08:01;0.17;75.37
65421;DHT22;52028;50.658;14.004;2022-11-20T09:10:26;0.20;75.43
65421;DHT22;52028;50.658;14.004;2022-11-20T09:12:52;0.23;75.22
65421;DHT22;52028;50.658;14.004;2022-11-20T09:15:19;0.27;74.66
65421;DHT22;52028;50.658;14.004;2022-11-20T09:18:10;0.27;75.16
65421;DHT22;52028;50.658;14.004;2022-11-20T09:20:36;0.25;74.93
65421;DHT22;52028;50.658;14.004;2022-11-20T09:23:02;0.26;75.10
65421;DHT22;52028;50.658;14.004;2022-11-20T09:25:28;0.46;74.52
65421;DHT22;52028;50.658;14.004;2022-11-20T09:27:57;0.54;73.69
65421;DHT22;52028;50.658;14.004;2022-11-20T09:30:23;0.64;73.64
65421;DHT22;52028;50.658;14.004;2022-11-20T09:32:49;0.62;73.75
65421;DHT22;52028;50.658;14.004;2022-11-20T09:35:14;0.58;73.53
65421;DHT22;52028;50.658;14.004;2022-11-20T09:37:40;0.61;73.80
65421;DHT22;52028;50.658;14.004;2022-11-20T09:40:06;0.74;73.22
65421;DHT22;52028;50.658;14.004;2022-11-20T09:42:48;0.87;72.70
65421;DHT22;52028;50.658;14.004;2022-11-20T09:45:44;1.13;71.32
65421;DHT22;52028;50.658;14.004;2022-11-20T09:51:17;0.92;71.79
65421;DHT22;52028;50.658;14.004;2022-11-20T09:56:37;0.43;73.85
65421;DHT22;52028;50.658;14.004;2022-11-20T09:59:04;0.37;74.64
65421;DHT22;52028;50.658;14.004;2022-11-20T10:01:34;0.61;74.25
65421;DHT22;52028;50.658;14.004;2022-11-20T10:04:08;0.72;72.98
65421;DHT22;52028;50.658;14.004;2022-11-20T10:06:47;0.61;72.45
65421;DHT22;52028;50.658;14.004;2022-11-20T10:09:23;0.51;72.63
65421;DHT22;52028;50.658;14.004;2022-11-20T10:12:11;0.40;73.04
65421;DHT22;52028;50.658;14.004;2022-11-20T10:14:50;0.39;73.15
65421;DHT22;52028;50.658;14.004;2022-11-20T10:31:03;0.77;72.20
65421;DHT22;52028;50.658;14.004;2022-11-20T10:33:33;0.95;71.07
65421;DHT22;52028;50.658;14.004;2022-11-20T10:38:48;1.00;70.86
65421;DHT22;52028;50.658;14.004;2022-11-20T10:41:32;1.23;70.03
65421;DHT22;52028;50.658;14.004;2022-11-20T10:44:22;1.19;70.29
65421;DHT22;52028;50.658;14.004;2022-11-20T10:47:16;1.36;70.19
65421;DHT22;52028;50.658;14.004;2022-11-20T10:49:43;1.36;70.10
65421;DHT22;52028;50.658;14.004;2022-11-20T10:54:58;1.43;69.79
65421;DHT22;52028;50.658;14.004;2022-11-20T11:00:14;1.23;70.45
65421;DHT22;52028;50.658;14.004;2022-11-20T11:02:41;1.34;70.34
65421;DHT22;52028;50.658;14.004;2022-11-20T11:05:17;1.33;70.41
65421;DHT22;52028;50.658;14.004;2022-11-20T11:07:49;1.09;70.91
65421;DHT22;52028;50.658;14.004;2022-11-20T11:10:19;1.24;71.17
65421;DHT22;52028;50.658;14.004;2022-11-20T11:12:47;1.41;70.45
65421;DHT22;52028;50.658;14.004;2022-11-20T11:17:54;1.16;71.16
65421;DHT22;52028;50.658;14.004;2022-11-20T11:20:21;1.29;71.27
65421;DHT22;52028;50.658;14.004;2022-11-20T11:22:56;1.37;71.17
65421;DHT22;52028;50.658;14.004;2022-11-20T11:25:33;1.34;71.57
65421;DHT22;52028;50.658;14.004;2022-11-20T11:28:04;1.36;70.81
65421;DHT22;52028;50.658;14.004;2022-11-20T11:30:41;1.19;71.69
65421;DHT22;52028;50.658;14.004;2022-11-20T11:33:11;1.10;72.19
65421;DHT22;52028;50.658;14.004;2022-11-20T11:36:16;0.87;73.19
65421;DHT22;52028;50.658;14.004;2022-11-20T11:38:43;0.54;74.45
65421;DHT22;52028;50.658;14.004;2022-11-20T11:41:14;0.50;75.49
65421;DHT22;52028;50.658;14.004;2022-11-20T11:43:51;0.72;75.14
65421;DHT22;52028;50.658;14.004;2022-11-20T11:46:36;1.02;74.41
65421;DHT22;52028;50.658;14.004;2022-11-20T11:51:46;1.34;72.73
65421;DHT22;52028;50.658;14.004;2022-11-20T11:54:20;1.23;73.05
65421;DHT22;52028;50.658;14.004;2022-11-20T11:56:48;0.78;74.00
65421;DHT22;52028;50.658;14.004;2022-11-20T11:59:22;0.61;75.50
65421;DHT22;52028;50.658;14.004;2022-11-20T12:01:56;0.92;74.76
65421;DHT22;52028;50.658;14.004;2022-11-20T12:04:46;1.12;73.94
65421;DHT22;52028;50.658;14.004;2022-11-20T12:07:29;1.06;73.93
65421;DHT22;52028;50.658;14.004;2022-11-20T12:09:57;1.22;73.60
65421;DHT22;52028;50.658;14.004;2022-11-20T12:12:36;1.26;72.71
65421;DHT22;52028;50.658;14.004;2022-11-20T12:15:03;0.84;73.40
65421;DHT22;52028;50.658;14.004;2022-11-20T12:17:29;0.77;74.71
65421;DHT22;52028;50.658;14.004;2022-11-20T12:19:54;1.16;73.89
65421;DHT22;52028;50.658;14.004;2022-11-20T12:22:37;1.30;72.87
65421;DHT22;52028;50.658;14.004;2022-11-20T12:25:22;1.36;72.66
65421;DHT22;52028;50.658;14.004;2022-11-20T12:30:24;1.24;73.25
65421;DHT22;52028;50.658;14.004;2022-11-20T12:41:35;1.17;72.31
65421;DHT22;52028;50.658;14.004;2022-11-20T12:58:39;1.30;72.73
65421;DHT22;52028;50.658;14.004;2022-11-20T13:03:57;1.34;73.16
65421;DHT22;52028;50.658;14.004;2022-11-20T13:06:25;1.44;73.06
65421;DHT22;52028;50.658;14.004;2022-11-20T13:08:55;1.26;73.97
65421;DHT22;52028;50.658;14.004;2022-11-20T13:11:44;1.26;74.17
65421;DHT22;52028;50.658;14.004;2022-11-20T13:14:37;1.27;73.80
65421;DHT22;52028;50.658;14.004;2022-11-20T13:17:24;1.44;74.12
65421;DHT22;52028;50.658;14.004;2022-11-20T13:19:56;1.57;73.18
65421;DHT22;52028;50.658;14.004;2022-11-20T13:22:28;1.60;72.86
65421;DHT22;52028;50.658;14.004;2022-11-20T13:24:53;1.32;73.56
65421;DHT22;52028;50.658;14.004;2022-11-20T13:27:23;1.37;73.62
65421;DHT22;52028;50.658;14.004;2022-11-20T13:30:02;1.52;73.75
65421;DHT22;52028;50.658;14.004;2022-11-20T13:32:36;1.10;73.56
65421;DHT22;52028;50.658;14.004;2022-11-20T13:35:24;0.87;74.65
65421;DHT22;52028;50.658;14.004;2022-11-20T13:38:03;0.89;74.98
65421;DHT22;52028;50.658;14.004;2022-11-20T13:40:29;0.93;74.46
65421;DHT22;52028;50.658;14.004;2022-11-20T13:45:39;0.70;75.35
65421;DHT22;52028;50.658;14.004;2022-11-20T13:48:19;0.81;75.18
65421;DHT22;52028;50.658;14.004;2022-11-20T14:01:21;0.98;74.88
65421;DHT22;52028;50.658;14.004;2022-11-20T14:03:48;0.93;75.09
65421;DHT22;52028;50.658;14.004;2022-11-20T14:06:28;0.89;75.17
65421;DHT22;52028;50.658;14.004;2022-11-20T14:08:55;0.65;75.86
65421;DHT22;52028;50.658;14.004;2022-11-20T14:11:23;0.51;76.77
65421;DHT22;52028;50.658;14.004;2022-11-20T14:14:18;0.47;77.74
65421;DHT22;52028;50.658;14.004;2022-11-20T14:16:44;0.71;77.04
65421;DHT22;52028;50.658;14.004;2022-11-20T14:21:44;0.71;77.16
65421;DHT22;52028;50.658;14.004;2022-11-20T14:24:11;0.71;77.06
65421;DHT22;52028;50.658;14.004;2022-11-20T14:26:44;0.89;76.93
65421;DHT22;52028;50.658;14.004;2022-11-20T14:29:36;0.70;77.04
65421;DHT22;52028;50.658;14.004;2022-11-20T14:32:03;0.89;76.92
65421;DHT22;52028;50.658;14.004;2022-11-20T14:34:31;1.02;76.46
65421;DHT22;52028;50.658;14.004;2022-11-20T14:37:02;0.70;77.36
65421;DHT22;52028;50.658;14.004;2022-11-20T14:39:33;0.44;78.35
65421;DHT22;52028;50.658;14.004;2022-11-20T14:41:59;0.70;77.92
65421;DHT22;52028;50.658;14.004;2022-11-20T14:44:33;0.64;77.52
65421;DHT22;52028;50.658;14.004;2022-11-20T14:47:03;0.49;78.08
65421;DHT22;52028;50.658;14.004;2022-11-20T14:49:30;0.40;78.77
65421;DHT22;52028;50.658;14.004;2022-11-20T14:52:10;0.65;77.92
65421;DHT22;52028;50.658;14.004;2022-11-20T14:54:44;0.62;77.65
65421;DHT22;52028;50.658;14.004;2022-11-20T14:57:32;0.81;77.25
65421;DHT22;52028;50.658;14.004;2022-11-20T15:02:29;0.89;76.70
65421;DHT22;52028;50.658;14.004;2022-11-20T15:04:59;0.96;76.64
65421;DHT22;52028;50.658;14.004;2022-11-20T15:07:38;0.98;76.28
65421;DHT22;52028;50.658;14.004;2022-11-20T15:10:27;1.06;76.29
65421;DHT22;52028;50.658;14.004;2022-11-20T15:12:53;0.88;76.84
65421;DHT22;52028;50.658;14.004;2022-11-20T15:15:25;0.50;78.52
65421;DHT22;52028;50.658;14.004;2022-11-20T15:17:53;0.40;78.83
65421;DHT22;52028;50.658;14.004;2022-11-20T15:20:20;0.44;79.04
65421;DHT22;52028;50.658;14.004;2022-11-20T15:22:47;0.49;78.80
65421;DHT22;52028;50.658;14.004;2022-11-20T15:25:17;0.46;78.72
65421;DHT22;52028;50.658;14.004;2022-11-20T15:27:43;0.34;79.26
65421;DHT22;52028;50.658;14.004;2022-11-20T15:30:20;0.33;78.96
65421;DHT22;52028;50.658;14.004;2022-11-20T15:32:46;0.26;79.26
65421;DHT22;52028;50.658;14.004;2022-11-20T15:35:12;0.16;80.08
65421;DHT22;52028;50.658;14.004;2022-11-20T15:37:38;0.20;79.82
65421;DHT22;52028;50.658;14.004;2022-11-20T15:40:05;0.22;80.18
65421;DHT22;52028;50.658;14.004;2022-11-20T15:42:31;0.49;79.46
65421;DHT22;52028;50.658;14.004;2022-11-20T15:44:57;0.44;79.02
65421;DHT22;52028;50.658;14.004;2022-11-20T15:47:27;0.40;79.34
65421;DHT22;52028;50.658;14.004;2022-11-20T15:49:53;0.49;79.12
65421;DHT22;52028;50.658;14.004;2022-11-20T15:52:18;0.49;79.13
65421;DHT22;52028;50.658;14.004;2022-11-20T15:54:45;0.54;78.88
65421;DHT22;52028;50.658;14.004;2022-11-20T15:57:10;0.65;78.74
65421;DHT22;52028;50.658;14.004;2022-11-20T15:59:36;0.74;78.47
65421;DHT22;52028;50.658;14.004;2022-11-20T16:02:15;0.89;78.05
65421;DHT22;52028;50.658;14.004;2022-11-20T16:04:41;0.91;77.76
65421;DHT22;52028;50.658;14.004;2022-11-20T16:07:07;0.96;77.68
65421;DHT22;52028;50.658;14.004;2022-11-20T16:09:34;0.91;77.86
65421;DHT22;52028;50.658;14.004;2022-11-20T16:12:00;0.58;78.63
65421;DHT22;52028;50.658;14.004;2022-11-20T16:14:26;0.57;79.10
65421;DHT22;52028;50.658;14.004;2022-11-20T16:17:10;0.72;79.03
65421;DHT22;52028;50.658;14.004;2022-11-20T16:19:36;0.71;78.69
65421;DHT22;52028;50.658;14.004;2022-11-20T16:22:03;0.84;78.50
65421;DHT22;52028;50.658;14.004;2022-11-20T16:24:28;0.96;78.20
65421;DHT22;52028;50.658;14.004;2022-11-20T16:26:54;1.07;77.87
65421;DHT22;52028;50.658;14.004;2022-11-20T16:29:20;1.07;77.79
65421;DHT22;52028;50.658;14.004;2022-11-20T16:31:47;1.06;77.81
65421;DHT22;52028;50.658;14.004;2022-11-20T16:34:16;1.00;77.70
65421;DHT22;52028;50.658;14.004;2022-11-20T16:36:43;1.02;77.68
65421;DHT22;52028;50.658;14.004;2022-11-20T16:39:10;1.05;77.76
65421;DHT22;52028;50.658;14.004;2022-11-20T16:41:36;0.99;77.84
65421;DHT22;52028;50.658;14.004;2022-11-20T16:44:05;0.98;78.21
65421;DHT22;52028;50.658;14.004;2022-11-20T16:46:34;1.00;77.90
65421;DHT22;52028;50.658;14.004;2022-11-20T16:49:03;1.03;77.76
65421;DHT22;52028;50.658;14.004;2022-11-20T16:51:33;1.06;77.42
65421;DHT22;52028;50.658;14.004;2022-11-20T16:54:01;1.05;77.59
65421;DHT22;52028;50.658;14.004;2022-11-20T16:56:27;1.02;77.67
65421;DHT22;52028;50.658;14.004;2022-11-20T16:58:56;0.92;77.96
65421;DHT22;52028;50.658;14.004;2022-11-20T17:01:23;0.87;78.20